Time;durP1;ratioP1;P1;durP2;ratioP2;P2;SDS_P1;SDS_P2;PMS_P1;PMS_P2;Temp;Humidity;BMP_temperature;BMP_pressure;BME280_temperature;BME280_humidity;BME280_pressure;Samples;Min_cycle;Max_cycle;Signal;HPM_P1;HPM_P2
2022/07/02 00:02:25;;;;;;;10.40;4.10;;;15.20;42.40;;;;;;5001143;28;20323;-74
2022/07/02 00:05:04;;;;;;;4.10;2.97;;;15.20;42.40;;;;;;5016613;28;20689;-74
2022/07/02 00:07:30;;;;;;;4.57;2.70;;;15.10;42.30;;;;;;5008371;28;20425;-74
2022/07/02 00:09:56;;;;;;;4.83;2.63;;;15.10;42.40;;;;;;4981933;28;20790;-74
2022/07/02 00:12:27;;;;;;;6.13;3.00;;;15.10;42.40;;;;;;5011709;28;20181;-74
2022/07/02 00:14:58;;;;;;;4.83;2.57;;;15.00;42.30;;;;;;5017491;28;20468;-74
2022/07/02 00:17:24;;;;;;;5.77;2.63;;;15.00;42.30;;;;;;5013532;28;20482;-74
2022/07/02 00:19:51;;;;;;;10.17;2.77;;;14.90;47.30;;;;;;5011534;28;20441;-74
2022/07/02 00:22:17;;;;;;;4.17;2.73;;;14.90;50.00;;;;;;5001093;28;20414;-74
2022/07/02 00:24:44;;;;;;;3.30;2.60;;;15.30;49.70;;;;;;5015726;28;20818;-74
2022/07/02 00:27:11;;;;;;;2.73;2.47;;;14.80;52.00;;;;;;5011426;28;20413;-74
2022/07/02 00:29:43;;;;;;;2.90;2.60;;;14.80;52.70;;;;;;5004578;28;20552;-74
2022/07/02 00:32:09;;;;;;;6.03;2.43;;;15.10;55.20;;;;;;5017498;28;20428;-74
2022/07/02 00:34:38;;;;;;;7.13;2.53;;;14.80;56.90;;;;;;5018762;28;20481;-74
2022/07/02 00:37:06;;;;;;;4.40;2.43;;;14.80;54.10;;;;;;4987038;28;20221;-75
2022/07/02 00:39:32;;;;;;;4.27;2.43;;;14.80;53.20;;;;;;4974229;28;20549;-74
2022/07/02 00:41:59;;;;;;;8.17;2.90;;;14.90;49.40;;;;;;5016833;28;20447;-74
2022/07/02 00:44:26;;;;;;;3.10;2.80;;;14.80;46.60;;;;;;5016296;28;20665;-74
2022/07/02 00:46:53;;;;;;;2.73;2.40;;;14.70;47.70;;;;;;5007277;28;20429;-74
2022/07/02 00:49:21;;;;;;;3.53;2.50;;;14.70;49.90;;;;;;5011782;28;20501;-74
2022/07/02 00:51:46;;;;;;;6.13;2.83;;;14.70;50.00;;;;;;5018252;28;20580;-74
2022/07/02 00:54:12;;;;;;;7.27;2.37;;;14.70;52.80;;;;;;5018194;28;20627;-74
2022/07/02 00:56:37;;;;;;;3.90;2.30;;;14.70;54.40;;;;;;5010855;28;20376;-74
2022/07/02 00:59:04;;;;;;;2.40;2.20;;;14.70;53.00;;;;;;5018131;28;20181;-74
2022/07/02 01:01:29;;;;;;;4.40;2.67;;;14.70;48.90;;;;;;4995939;28;20293;-74
2022/07/02 01:03:57;;;;;;;6.13;2.47;;;14.60;51.20;;;;;;4976872;28;20961;-74
2022/07/02 01:06:24;;;;;;;9.43;2.50;;;14.60;52.30;;;;;;4989504;28;20194;-73
2022/07/02 01:11:36;;;;;;;4.00;2.40;;;14.50;53.50;;;;;;5005809;28;20435;-74
2022/07/02 01:14:02;;;;;;;2.80;2.17;;;14.50;53.90;;;;;;4989103;28;20430;-74
2022/07/02 01:16:28;;;;;;;3.07;2.53;;;14.50;52.50;;;;;;4991959;28;20286;-73
2022/07/02 01:18:54;;;;;;;3.13;2.60;;;14.60;55.50;;;;;;5006380;28;20613;-74
2022/07/02 01:21:20;;;;;;;2.70;2.50;;;14.60;56.50;;;;;;5006537;28;20659;-73
2022/07/02 01:23:45;;;;;;;4.43;2.40;;;14.60;59.70;;;;;;5009641;28;20312;-74
2022/07/02 01:26:11;;;;;;;3.20;2.37;;;14.60;56.40;;;;;;4998119;28;20973;-74
2022/07/02 01:28:36;;;;;;;7.00;2.57;;;14.60;55.10;;;;;;5015238;28;20186;-74
2022/07/02 01:31:02;;;;;;;7.00;2.77;;;14.50;55.10;;;;;;5010080;28;20200;-74
2022/07/02 01:33:28;;;;;;;7.77;2.60;;;14.50;54.30;;;;;;5025249;28;20521;-74
2022/07/02 01:35:53;;;;;;;3.70;2.67;;;14.40;53.90;;;;;;5017423;28;20557;-74
2022/07/02 01:38:19;;;;;;;2.87;2.50;;;14.40;55.70;;;;;;4998502;28;20202;-74
2022/07/02 01:40:45;;;;;;;2.50;2.30;;;14.30;57.50;;;;;;4986350;28;20190;-74
2022/07/02 01:43:10;;;;;;;3.63;2.17;;;14.30;56.60;;;;;;5011446;28;20243;-74
2022/07/02 01:45:36;;;;;;;3.97;2.70;;;14.20;57.30;;;;;;4992414;28;20779;-74
2022/07/02 01:48:01;;;;;;;2.93;2.50;;;14.20;57.70;;;;;;5010204;28;20668;-74
2022/07/02 01:50:27;;;;;;;4.27;3.23;;;14.10;60.70;;;;;;5018244;28;20173;-74
2022/07/02 01:52:56;;;;;;;6.93;3.30;;;14.00;64.00;;;;;;5009316;28;20185;-74
2022/07/02 01:55:22;;;;;;;3.67;2.63;;;14.00;64.80;;;;;;4986955;28;20222;-74
2022/07/02 01:57:48;;;;;;;4.20;2.50;;;14.00;63.90;;;;;;5014800;28;20620;-74
2022/07/02 02:00:14;;;;;;;3.27;2.80;;;14.00;65.00;;;;;;5008658;28;20575;-74
2022/07/02 02:02:40;;;;;;;5.47;2.67;;;14.00;63.90;;;;;;5017873;28;20191;-74
2022/07/02 02:05:06;;;;;;;2.80;2.50;;;14.00;64.70;;;;;;5009585;28;20551;-74
2022/07/02 02:07:32;;;;;;;3.83;2.53;;;13.90;65.40;;;;;;5002451;28;20586;-74
2022/07/02 02:09:57;;;;;;;5.27;2.53;;;13.90;64.90;;;;;;5009862;28;20428;-74
2022/07/02 02:12:23;;;;;;;6.30;2.30;;;13.90;67.60;;;;;;5022600;28;20194;-74
2022/07/02 02:14:48;;;;;;;5.50;2.47;;;13.90;67.10;;;;;;5009921;28;20202;-74
2022/07/02 02:17:14;;;;;;;6.17;2.53;;;13.90;65.70;;;;;;5009588;28;20193;-74
2022/07/02 02:19:39;;;;;;;6.67;2.50;;;13.80;67.00;;;;;;5012493;28;20590;-74
2022/07/02 02:22:05;;;;;;;2.57;2.37;;;13.80;67.90;;;;;;5011340;28;20644;-74
2022/07/02 02:24:31;;;;;;;3.30;2.57;;;13.80;70.90;;;;;;4997720;28;20211;-74
2022/07/02 02:26:57;;;;;;;4.83;2.77;;;13.80;68.10;;;;;;5009418;28;20629;-74
2022/07/02 02:29:22;;;;;;;4.23;2.27;;;13.80;69.50;;;;;;5006806;28;20614;-73
2022/07/02 02:31:48;;;;;;;3.87;2.63;;;13.80;69.70;;;;;;5014868;28;20452;-74
2022/07/02 02:34:14;;;;;;;3.03;2.53;;;13.80;70.40;;;;;;5019334;28;20321;-74
2022/07/02 02:36:39;;;;;;;12.17;3.07;;;13.80;67.10;;;;;;4992268;28;20625;-74
2022/07/02 02:39:05;;;;;;;3.07;2.77;;;13.70;67.90;;;;;;5003103;28;20501;-74
2022/07/02 02:41:31;;;;;;;5.00;2.60;;;13.70;70.00;;;;;;5025104;28;20170;-73
2022/07/02 02:43:56;;;;;;;2.47;2.20;;;13.60;72.70;;;;;;5009026;28;20179;-74
2022/07/02 02:46:22;;;;;;;3.53;3.10;;;13.60;72.80;;;;;;5008783;28;20637;-73
2022/07/02 02:48:47;;;;;;;3.97;2.67;;;13.50;73.70;;;;;;5002546;28;20262;-74
2022/07/02 02:51:15;;;;;;;3.77;2.50;;;13.60;74.60;;;;;;5025349;28;20268;-74
2022/07/02 02:53:44;;;;;;;3.03;2.60;;;13.60;75.70;;;;;;4988412;28;20201;-74
2022/07/02 02:56:11;;;;;;;4.30;2.70;;;13.60;73.80;;;;;;5027248;28;20990;-74
2022/07/02 02:58:36;;;;;;;5.23;2.63;;;13.60;74.60;;;;;;5020972;28;20417;-74
2022/07/02 03:01:02;;;;;;;3.70;2.53;;;13.60;74.60;;;;;;5014151;28;20799;-74
2022/07/02 03:03:27;;;;;;;5.97;2.60;;;13.60;72.30;;;;;;5013314;28;20210;-74
2022/07/02 03:05:54;;;;;;;8.00;2.67;;;13.60;74.20;;;;;;5004694;28;20217;-73
2022/07/02 03:08:20;;;;;;;5.23;2.83;;;13.60;71.90;;;;;;5002664;28;20201;-74
2022/07/02 03:10:47;;;;;;;4.10;3.10;;;13.60;73.30;;;;;;5015608;28;20887;-74
2022/07/02 03:13:13;;;;;;;7.13;2.67;;;13.50;75.70;;;;;;4991545;28;20934;-74
2022/07/02 03:15:38;;;;;;;3.10;2.57;;;13.50;78.60;;;;;;5016903;28;20853;-74
2022/07/02 03:18:04;;;;;;;4.80;2.60;;;13.40;79.90;;;;;;4992546;28;20469;-74
2022/07/02 03:20:31;;;;;;;5.87;2.17;;;13.40;80.30;;;;;;5023379;28;20257;-73
2022/07/02 03:22:57;;;;;;;2.63;2.43;;;13.40;80.00;;;;;;4991807;28;20178;-74
2022/07/02 03:25:22;;;;;;;5.13;3.20;;;13.40;78.80;;;;;;5020610;28;20470;-74
2022/07/02 03:27:48;;;;;;;5.33;2.50;;;13.40;79.30;;;;;;5019869;28;20261;-74
2022/07/02 03:30:14;;;;;;;5.03;2.50;;;13.70;77.60;;;;;;4989957;28;20208;-73
2022/07/02 03:32:40;;;;;;;2.90;2.53;;;13.50;80.50;;;;;;4998111;28;20179;-73
2022/07/02 03:35:06;;;;;;;2.63;2.43;;;13.50;81.40;;;;;;5007723;28;20274;-74
2022/07/02 03:37:31;;;;;;;5.17;2.60;;;13.50;84.40;;;;;;5001301;28;20171;-73
2022/07/02 03:39:57;;;;;;;6.63;2.70;;;13.60;81.10;;;;;;4999303;28;20182;-73
2022/07/02 03:42:23;;;;;;;4.87;2.53;;;13.70;79.60;;;;;;5015166;28;20320;-74
2022/07/02 03:44:48;;;;;;;3.83;2.43;;;13.70;83.20;;;;;;4991317;28;20210;-74
2022/07/02 03:47:14;;;;;;;3.53;2.30;;;13.70;82.70;;;;;;5008160;28;20584;-74
2022/07/02 03:49:39;;;;;;;5.43;3.20;;;13.70;77.80;;;;;;4985530;28;20265;-74
2022/07/02 03:52:05;;;;;;;4.43;2.67;;;13.80;80.60;;;;;;5028459;28;20170;-74
2022/07/02 03:54:31;;;;;;;4.47;2.70;;;13.90;77.40;;;;;;5013886;28;20209;-74
2022/07/02 03:56:57;;;;;;;4.60;2.70;;;13.90;78.10;;;;;;5010547;28;20568;-74
2022/07/02 03:59:22;;;;;;;4.80;2.70;;;13.90;75.50;;;;;;4992900;28;20196;-74
2022/07/02 04:01:48;;;;;;;3.43;2.83;;;13.90;76.10;;;;;;4996032;28;20430;-74
2022/07/02 04:04:13;;;;;;;2.90;2.40;;;13.90;70.10;;;;;;5019032;28;20199;-74
2022/07/02 04:06:39;;;;;;;4.73;2.37;;;13.90;74.60;;;;;;5024861;28;20223;-74
2022/07/02 04:09:04;;;;;;;7.53;2.73;;;14.00;74.40;;;;;;5005493;28;20598;-74
2022/07/02 04:11:30;;;;;;;4.20;2.70;;;14.00;77.00;;;;;;5005631;28;20200;-74
2022/07/02 04:13:55;;;;;;;4.70;2.60;;;14.10;75.50;;;;;;5008228;28;20186;-74
2022/07/02 04:16:21;;;;;;;6.13;3.13;;;14.10;76.20;;;;;;5004479;28;20190;-74
2022/07/02 04:18:46;;;;;;;3.40;2.67;;;14.20;74.30;;;;;;5007452;28;20233;-74
2022/07/02 04:21:12;;;;;;;7.60;2.53;;;14.30;71.10;;;;;;5020479;28;20224;-73
2022/07/02 04:23:38;;;;;;;3.77;2.90;;;14.30;76.50;;;;;;5005695;28;20253;-74
2022/07/02 04:26:04;;;;;;;6.93;3.03;;;14.30;76.20;;;;;;5007211;28;20291;-73
2022/07/02 04:28:30;;;;;;;5.07;2.70;;;14.40;71.60;;;;;;4998896;28;20175;-74
2022/07/02 04:30:55;;;;;;;6.40;3.00;;;14.50;69.90;;;;;;5016520;28;20435;-74
2022/07/02 04:33:21;;;;;;;6.87;3.17;;;14.60;71.40;;;;;;5010493;28;20254;-74
2022/07/02 04:35:46;;;;;;;3.47;3.17;;;14.60;68.30;;;;;;5014619;28;20206;-74
2022/07/02 04:38:12;;;;;;;4.73;3.10;;;14.60;68.50;;;;;;5012893;28;20483;-74
2022/07/02 04:40:38;;;;;;;6.40;3.40;;;14.70;74.00;;;;;;5012080;28;20185;-74
2022/07/02 04:43:03;;;;;;;5.20;3.10;;;14.70;72.10;;;;;;5013550;28;20186;-74
2022/07/02 04:45:29;;;;;;;4.27;3.00;;;14.80;73.00;;;;;;5007722;28;20210;-74
2022/07/02 04:47:54;;;;;;;3.87;3.17;;;15.00;68.30;;;;;;5002123;28;20197;-77
2022/07/02 04:50:20;;;;;;;5.23;3.00;;;15.10;66.10;;;;;;5021268;28;20181;-74
2022/07/02 04:52:48;;;;;;;3.87;2.63;;;15.10;65.20;;;;;;5019170;28;20198;-74
2022/07/02 04:55:14;;;;;;;9.70;3.10;;;15.30;64.50;;;;;;4990281;28;20190;-74
2022/07/02 04:57:40;;;;;;;3.60;3.00;;;15.30;64.70;;;;;;5008786;28;20492;-74
2022/07/02 05:00:06;;;;;;;3.90;2.70;;;15.40;64.20;;;;;;4996885;28;20465;-74
2022/07/02 05:02:32;;;;;;;3.97;2.70;;;15.50;62.30;;;;;;5022747;28;20178;-74
2022/07/02 05:04:57;;;;;;;6.50;2.90;;;15.60;62.50;;;;;;5009656;28;20471;-74
2022/07/02 05:07:23;;;;;;;4.90;2.70;;;15.70;62.60;;;;;;5009703;28;20751;-74
2022/07/02 05:09:48;;;;;;;3.77;2.70;;;15.80;62.50;;;;;;4991284;28;20628;-75
2022/07/02 05:12:14;;;;;;;3.33;3.03;;;15.90;60.60;;;;;;5007665;28;20673;-74
2022/07/02 05:14:39;;;;;;;4.83;3.20;;;16.00;64.00;;;;;;5008227;28;20218;-73
2022/07/02 05:17:05;;;;;;;3.93;3.03;;;16.00;64.20;;;;;;5008530;28;20228;-74
2022/07/02 05:19:31;;;;;;;5.80;2.97;;;16.10;66.80;;;;;;4996277;28;20209;-74
2022/07/02 05:21:57;;;;;;;4.80;2.90;;;16.20;65.50;;;;;;5019265;28;20840;-74
2022/07/02 05:24:22;;;;;;;3.47;2.93;;;16.30;56.00;;;;;;5007457;28;20252;-74
2022/07/02 05:26:48;;;;;;;5.33;2.83;;;16.40;58.90;;;;;;5009750;28;20665;-74
2022/07/02 05:29:13;;;;;;;4.40;2.70;;;16.50;58.40;;;;;;5009337;28;20170;-75
2022/07/02 05:31:39;;;;;;;6.60;3.00;;;16.50;54.70;;;;;;5020511;28;20183;-73
2022/07/02 05:34:04;;;;;;;4.57;3.20;;;16.70;51.90;;;;;;5007452;28;20190;-74
2022/07/02 05:36:30;;;;;;;4.20;2.87;;;16.70;48.90;;;;;;5023680;28;20239;-74
2022/07/02 05:38:55;;;;;;;4.30;2.90;;;16.80;47.50;;;;;;4985316;28;20171;-74
2022/07/02 05:41:21;;;;;;;3.07;2.70;;;16.90;43.90;;;;;;4988938;28;20545;-74
2022/07/02 05:43:46;;;;;;;10.13;3.27;;;17.00;43.90;;;;;;5024915;28;20205;-74
2022/07/02 05:46:12;;;;;;;3.47;3.17;;;17.00;43.80;;;;;;4980621;28;20297;-74
2022/07/02 05:48:38;;;;;;;4.70;3.00;;;17.10;44.00;;;;;;5011389;28;20178;-75
2022/07/02 05:51:03;;;;;;;8.00;3.20;;;17.10;44.00;;;;;;5011667;28;20182;-74
2022/07/02 05:53:29;;;;;;;4.93;3.00;;;17.20;44.00;;;;;;5006306;28;20229;-75
2022/07/02 05:55:54;;;;;;;5.90;3.27;;;17.30;44.10;;;;;;5005382;28;20307;-74
2022/07/02 05:58:20;;;;;;;3.40;3.10;;;17.30;44.10;;;;;;4990564;28;20610;-74
2022/07/02 06:00:45;;;;;;;4.20;3.40;;;17.40;44.10;;;;;;4981472;28;20717;-74
2022/07/02 06:03:11;;;;;;;5.10;3.03;;;17.50;43.20;;;;;;5013485;28;20179;-74
2022/07/02 06:08:20;;;;;;;3.20;2.47;;;17.70;36.50;;;;;;5013958;28;20215;-74
2022/07/02 06:10:46;;;;;;;2.60;2.40;;;17.90;36.00;;;;;;5019958;28;20475;-74
2022/07/02 06:13:11;;;;;;;5.45;2.50;;;18.00;28.10;;;;;;5017440;28;20465;-79
2022/07/02 06:15:37;;;;;;;3.00;2.50;;;18.20;26.50;;;;;;5006021;28;20206;-75
2022/07/02 06:18:03;;;;;;;3.40;2.87;;;18.30;24.80;;;;;;5024842;28;20225;-74
2022/07/02 06:20:28;;;;;;;3.10;2.53;;;18.40;23.40;;;;;;5011002;28;20505;-80
2022/07/02 06:22:54;;;;;;;3.40;2.40;;;18.50;19.80;;;;;;5000072;28;20186;-75
2022/07/02 06:25:20;;;;;;;6.13;2.10;;;18.60;17.50;;;;;;4995214;28;20209;-75
2022/07/02 06:27:45;;;;;;;3.53;2.47;;;18.80;17.80;;;;;;4985947;28;20179;-75
2022/07/02 06:30:11;;;;;;;4.77;2.80;;;18.90;16.00;;;;;;4985942;28;20309;-76
2022/07/02 06:32:37;;;;;;;2.83;2.20;;;19.00;12.40;;;;;;5013079;28;20178;-76
2022/07/02 06:35:03;;;;;;;3.33;2.30;;;19.10;10.70;;;;;;5006379;28;20296;-76
2022/07/02 06:37:29;;;;;;;3.23;2.20;;;19.10;11.40;;;;;;5010373;28;20700;-75
2022/07/02 06:39:55;;;;;;;3.07;2.13;;;19.20;7.40;;;;;;4993386;28;20428;-75
2022/07/02 06:42:22;;;;;;;3.30;2.50;;;19.30;7.00;;;;;;5022002;28;20522;-75
2022/07/02 06:44:52;;;;;;;3.13;2.33;;;19.40;6.90;;;;;;4986708;28;20210;-76
2022/07/02 06:47:18;;;;;;;2.67;1.87;;;19.50;3.00;;;;;;5022349;28;20424;-75
2022/07/02 06:49:44;;;;;;;2.73;2.27;;;19.50;1.80;;;;;;4995021;28;20583;-75
2022/07/02 06:52:11;;;;;;;2.60;2.00;;;19.60;1.50;;;;;;5016068;28;20417;-75
2022/07/02 06:54:37;;;;;;;3.40;2.13;;;19.70;1.80;;;;;;5021018;28;20444;-75
2022/07/02 06:57:03;;;;;;;3.80;2.27;;;19.80;1.00;;;;;;5013911;28;20587;-76
2022/07/02 06:59:29;;;;;;;2.67;2.00;;;20.00;1.00;;;;;;4982379;28;20431;-73
2022/07/02 07:01:55;;;;;;;2.83;2.00;;;20.00;1.00;;;;;;5001911;28;20789;-76
2022/07/02 07:04:21;;;;;;;3.33;2.00;;;20.20;1.00;;;;;;5029732;28;20200;-75
2022/07/02 07:09:12;;;;;;;2.40;1.90;;;20.50;1.00;;;;;;4997952;28;20257;-74
2022/07/02 07:11:38;;;;;;;5.60;2.47;;;20.70;1.00;;;;;;4996127;28;20278;-73
2022/07/02 07:14:03;;;;;;;5.13;2.07;;;20.80;1.00;;;;;;5002899;28;20247;-74
2022/07/02 07:16:29;;;;;;;7.10;2.20;;;20.70;1.00;;;;;;5024950;28;20255;-74
2022/07/02 07:19:04;;;;;;;3.93;2.10;;;20.80;1.00;;;;;;4988092;28;20236;-74
2022/07/02 07:21:30;;;;;;;2.93;1.90;;;21.00;1.00;;;;;;5023955;28;20702;-73
2022/07/02 07:23:55;;;;;;;2.73;1.97;;;21.20;1.00;;;;;;5025580;28;20445;-74
2022/07/02 07:26:21;;;;;;;3.70;2.30;;;21.50;1.00;;;;;;4992981;28;20276;-74
2022/07/02 07:28:46;;;;;;;2.80;1.93;;;21.50;1.00;;;;;;5018566;28;20184;-74
2022/07/02 07:31:12;;;;;;;2.97;1.97;;;21.90;1.00;;;;;;5016315;28;20674;-73
2022/07/02 07:33:39;;;;;;;4.53;2.30;;;22.20;1.00;;;;;;5015495;28;20185;-74
2022/07/02 07:36:04;;;;;;;3.37;2.20;;;22.00;1.00;;;;;;5020861;28;20201;-73
2022/07/02 07:38:30;;;;;;;2.50;2.07;;;22.00;1.00;;;;;;5004142;28;20504;-74
2022/07/02 07:40:55;;;;;;;2.97;2.00;;;22.20;1.00;;;;;;4992908;28;20181;-74
2022/07/02 07:43:21;;;;;;;3.60;2.07;;;22.20;1.00;;;;;;5014741;28;20261;-74
2022/07/02 07:45:47;;;;;;;6.70;2.20;;;22.50;1.00;;;;;;5007343;28;20217;-73
2022/07/02 07:48:13;;;;;;;3.57;2.20;;;22.60;1.00;;;;;;5008190;28;20178;-73
2022/07/02 07:50:39;;;;;;;4.47;2.40;;;22.80;1.00;;;;;;5013072;28;20174;-74
2022/07/02 07:53:05;;;;;;;4.50;2.00;;;22.70;1.00;;;;;;4997747;28;20405;-76
2022/07/02 07:55:30;;;;;;;3.37;2.30;;;23.00;1.00;;;;;;4991720;28;20490;-74
2022/07/02 07:57:56;;;;;;;4.60;2.27;;;23.20;1.00;;;;;;5002101;28;20173;-74
2022/07/02 08:00:22;;;;;;;7.27;2.53;;;23.50;1.00;;;;;;5005901;28;20566;-74
2022/07/02 08:02:48;;;;;;;5.77;2.00;;;23.90;1.00;;;;;;5017412;28;20428;-74
2022/07/02 08:05:13;;;;;;;4.27;2.23;;;24.00;1.00;;;;;;5008764;28;20689;-74
2022/07/02 08:07:40;;;;;;;3.27;2.00;;;23.90;1.00;;;;;;4989955;28;20203;-74
2022/07/02 08:10:07;;;;;;;3.13;1.80;;;24.00;1.00;;;;;;5001132;28;20183;-74
2022/07/02 08:12:33;;;;;;;4.43;1.93;;;24.10;1.00;;;;;;5014705;28;20467;-74
2022/07/02 08:15:01;;;;;;;4.87;2.10;;;24.40;1.00;;;;;;4995104;28;20856;-74
2022/07/02 08:17:29;;;;;;;4.20;2.10;;;24.70;1.00;;;;;;4994440;28;20178;-74
2022/07/02 08:19:57;;;;;;;3.43;1.87;;;25.20;1.00;;;;;;4992060;28;20807;-74
2022/07/02 08:22:23;;;;;;;6.00;2.00;;;24.90;1.00;;;;;;5019532;28;20411;-74
2022/07/02 08:24:49;;;;;;;2.80;1.80;;;24.80;1.00;;;;;;4990101;28;20468;-74
2022/07/02 08:27:14;;;;;;;5.93;2.30;;;24.50;1.00;;;;;;5007894;28;20208;-74
2022/07/02 08:29:40;;;;;;;4.70;2.37;;;24.50;1.00;;;;;;5004657;28;20221;-74
2022/07/02 08:32:06;;;;;;;2.60;1.90;;;24.90;1.00;;;;;;5024346;28;20196;-74
2022/07/02 08:34:32;;;;;;;4.20;2.10;;;25.20;1.00;;;;;;5009444;28;20205;-74
2022/07/02 08:36:58;;;;;;;4.37;2.50;;;25.30;1.00;;;;;;5004696;28;20786;-74
2022/07/02 08:39:24;;;;;;;4.67;2.13;;;25.30;1.00;;;;;;5018633;28;20208;-74
2022/07/02 08:41:51;;;;;;;4.90;2.17;;;25.30;1.00;;;;;;5022521;28;20188;-74
2022/07/02 08:44:19;;;;;;;6.40;2.03;;;25.60;1.00;;;;;;4991090;28;20182;-75
2022/07/02 08:46:46;;;;;;;4.13;1.70;;;25.80;1.00;;;;;;4989079;28;20479;-75
2022/07/02 08:49:14;;;;;;;2.93;1.70;;;26.10;1.00;;;;;;4977516;28;20611;-74
2022/07/02 08:51:41;;;;;;;3.13;1.97;;;26.30;1.00;;;;;;4992479;28;20436;-74
2022/07/02 08:54:08;;;;;;;3.77;1.60;;;27.00;1.00;;;;;;4988845;28;20460;-74
2022/07/02 08:56:33;;;;;;;4.40;1.87;;;27.00;1.00;;;;;;5007539;28;20858;-74
2022/07/02 08:59:00;;;;;;;3.37;1.50;;;27.30;1.00;;;;;;4986171;28;20436;-74
2022/07/02 09:01:26;;;;;;;4.50;1.90;;;27.10;1.00;;;;;;5006220;28;20174;-74
2022/07/02 09:03:52;;;;;;;4.67;1.47;;;26.80;1.00;;;;;;5010898;28;20458;-74
2022/07/02 09:06:19;;;;;;;2.80;1.47;;;26.90;1.00;;;;;;5018745;28;20255;-74
2022/07/02 09:08:45;;;;;;;4.17;1.60;;;27.00;1.00;;;;;;4996139;28;20409;-74
2022/07/02 09:11:11;;;;;;;1.90;1.33;;;27.40;1.00;;;;;;5002826;28;20435;-74
2022/07/02 09:13:39;;;;;;;3.47;1.57;;;28.30;1.00;;;;;;5016429;28;20608;-74
2022/07/02 09:16:06;;;;;;;2.43;1.40;;;29.40;1.00;;;;;;5007490;28;20456;-75
2022/07/02 09:18:31;;;;;;;2.87;1.50;;;30.20;1.00;;;;;;4990590;28;20269;-74
2022/07/02 09:20:57;;;;;;;4.17;1.70;;;30.80;1.00;;;;;;5014583;28;20284;-75
2022/07/02 09:23:23;;;;;;;4.05;1.58;;;31.10;1.00;;;;;;4996625;28;20285;-74
2022/07/02 09:25:52;;;;;;;3.45;1.75;;;32.10;1.00;;;;;;4993464;28;20228;-75
2022/07/02 09:28:18;;;;;;;6.40;1.35;;;32.80;1.00;;;;;;5004913;28;20174;-75
2022/07/02 09:30:44;;;;;;;2.83;1.38;;;33.40;1.00;;;;;;5018043;28;20186;-77
2022/07/02 09:33:31;;;;;;;2.88;1.40;;;34.30;1.00;;;;;;4997228;28;20170;-76
2022/07/02 09:35:58;;;;;;;3.45;1.45;;;35.20;1.00;;;;;;5008448;28;20208;-76
2022/07/02 09:38:24;;;;;;;2.72;1.40;;;35.30;1.00;;;;;;5000303;28;20196;-76
2022/07/02 09:40:54;;;;;;;3.90;1.60;;;35.60;1.00;;;;;;5004706;28;20668;-76
2022/07/02 09:43:30;;;;;;;4.35;1.98;;;35.70;1.00;;;;;;5011111;28;20272;-77
2022/07/02 09:45:57;;;;;;;3.78;1.60;;;35.70;1.00;;;;;;5010188;28;20244;-76
2022/07/02 09:48:23;;;;;;;3.95;1.50;;;35.50;1.00;;;;;;5007499;28;20202;-75
2022/07/02 09:50:49;;;;;;;2.20;1.20;;;35.10;1.00;;;;;;5003614;28;20208;-76
2022/07/02 09:53:15;;;;;;;2.65;1.10;;;35.40;1.00;;;;;;5010548;28;20185;-75
2022/07/02 09:55:48;;;;;;;2.30;1.30;;;35.60;1.00;;;;;;5011695;28;20728;-75
2022/07/02 09:58:13;;;;;;;2.47;1.25;;;35.50;1.00;;;;;;5014859;28;20191;-75
2022/07/02 10:00:44;;;;;;;2.65;1.27;;;36.00;1.00;;;;;;5000446;28;20189;-75
2022/07/02 10:03:10;;;;;;;3.00;1.30;;;36.70;1.00;;;;;;5003400;28;20267;-76
2022/07/02 10:05:36;;;;;;;4.10;1.48;;;37.50;1.00;;;;;;5027621;28;20232;-79
2022/07/02 10:08:04;;;;;;;2.55;1.20;;;38.40;1.00;;;;;;5009275;28;20182;-79
2022/07/02 10:10:35;;;;;;;2.35;1.23;;;38.50;1.00;;;;;;4994924;28;20331;-78
2022/07/02 10:13:01;;;;;;;2.25;1.30;;;38.90;1.00;;;;;;5021990;28;20557;-78
2022/07/02 10:15:30;;;;;;;2.17;1.30;;;39.20;1.00;;;;;;4991441;28;20202;-78
2022/07/02 10:17:56;;;;;;;2.50;1.30;;;39.20;1.00;;;;;;5008656;28;20174;-78
2022/07/02 10:20:23;;;;;;;2.90;1.30;;;38.80;1.00;;;;;;5008265;28;20170;-78
2022/07/02 10:22:49;;;;;;;4.03;1.50;;;38.50;1.00;;;;;;5008350;28;20569;-79
2022/07/02 10:25:17;;;;;;;2.30;1.20;;;37.40;1.00;;;;;;5011756;28;20748;-78
2022/07/02 10:27:44;;;;;;;2.80;1.20;;;37.20;1.00;;;;;;5006903;28;20575;-78
2022/07/02 10:30:10;;;;;;;3.28;1.40;;;37.90;1.00;;;;;;4999682;28;20257;-78
2022/07/02 10:32:50;;;;;;;3.35;1.15;;;38.50;1.00;;;;;;5009076;28;20261;-78
2022/07/02 10:35:16;;;;;;;2.38;1.10;;;38.90;1.00;;;;;;5010307;28;20201;-78
2022/07/02 10:37:43;;;;;;;2.55;1.30;;;38.80;1.00;;;;;;5015353;28;20182;-78
2022/07/02 10:40:15;;;;;;;2.10;1.15;;;38.90;1.00;;;;;;5023605;28;20177;-75
2022/07/02 10:42:44;;;;;;;2.00;1.20;;;38.60;1.00;;;;;;5030255;28;20279;-75
2022/07/02 10:45:12;;;;;;;2.58;1.50;;;39.10;1.00;;;;;;5031055;28;20243;-76
2022/07/02 10:47:57;;;;;;;4.15;1.25;;;39.40;1.00;;;;;;5011788;28;20173;-75
2022/07/02 10:50:35;;;;;;;2.70;1.35;;;39.50;1.00;;;;;;5007646;28;20178;-75
2022/07/02 10:53:18;;;;;;;2.40;1.58;;;39.70;1.00;;;;;;4993381;28;20703;-75
2022/07/02 10:55:44;;;;;;;7.20;1.52;;;38.50;1.00;;;;;;5026293;28;20702;-76
2022/07/02 10:58:28;;;;;;;4.32;1.40;;;38.60;1.00;;;;;;5013598;28;20778;-75
2022/07/02 11:00:54;;;;;;;3.83;1.50;;;38.70;1.00;;;;;;4993308;28;20268;-75
2022/07/02 11:03:23;;;;;;;4.40;1.40;;;40.70;1.00;;;;;;5021769;28;20253;-75
2022/07/02 11:05:53;;;;;;;1.90;1.15;;;40.70;1.00;;;;;;5003941;28;20299;-76
2022/07/02 11:08:43;;;;;;;2.58;1.17;;;41.80;1.00;;;;;;4993489;28;20185;-78
2022/07/02 11:11:09;;;;;;;4.97;1.40;;;41.90;1.00;;;;;;5017648;28;20193;-76
2022/07/02 11:13:42;;;;;;;2.13;1.35;;;41.10;1.00;;;;;;4994843;28;20247;-76
2022/07/02 11:16:21;;;;;;;3.85;1.42;;;39.30;1.00;;;;;;5009821;28;20675;-76
2022/07/02 11:18:49;;;;;;;2.00;1.30;;;36.50;1.00;;;;;;4981958;28;20685;-75
2022/07/02 11:21:15;;;;;;;2.28;1.30;;;35.80;1.00;;;;;;5012497;28;20221;-76
2022/07/02 11:23:41;;;;;;;3.95;1.30;;;37.50;1.00;;;;;;5016266;28;20196;-75
2022/07/02 11:26:07;;;;;;;3.00;1.20;;;;;;;;;;5010611;28;20231;-75
2022/07/02 11:28:34;;;;;;;2.13;1.17;;;39.90;1.00;;;;;;5009064;28;20193;-75
2022/07/02 11:30:59;;;;;;;2.20;1.20;;;38.20;1.00;;;;;;5003516;28;20272;-75
2022/07/02 11:33:25;;;;;;;2.47;1.20;;;36.30;1.00;;;;;;4990852;28;20320;-75
2022/07/02 11:35:51;;;;;;;2.03;1.40;;;35.60;1.00;;;;;;5008364;28;20472;-77
2022/07/02 11:38:18;;;;;;;2.00;1.30;;;34.90;1.00;;;;;;4992498;28;20189;-75
2022/07/02 11:40:44;;;;;;;4.55;1.50;;;36.10;1.00;;;;;;4992417;28;20190;-75
2022/07/02 11:43:16;;;;;;;3.20;1.20;;;37.00;1.00;;;;;;4990288;28;20213;-75
2022/07/02 11:45:43;;;;;;;2.58;1.70;;;38.70;1.00;;;;;;5015281;28;20571;-76
2022/07/02 11:48:18;;;;;;;2.33;1.40;;;40.20;1.00;;;;;;5007369;28;20166;-78
2022/07/02 11:50:44;;;;;;;2.25;1.20;;;40.90;1.00;;;;;;5001212;28;20174;-77
2022/07/02 11:53:09;;;;;;;2.67;1.15;;;41.00;1.00;;;;;;5017114;28;20707;-78
2022/07/02 11:55:35;;;;;;;2.10;1.20;;;41.10;1.00;;;;;;5012442;28;20385;-76
2022/07/02 11:58:00;;;;;;;2.50;1.25;;;41.60;1.00;;;;;;5024171;28;20608;-77
2022/07/02 12:00:31;;;;;;;2.20;1.30;;;41.60;1.00;;;;;;5022145;28;20189;-81
2022/07/02 12:02:56;;;;;;;4.70;1.50;;;42.00;1.00;;;;;;5005347;28;20597;-77
2022/07/02 12:05:22;;;;;;;3.60;1.30;;;42.00;1.00;;;;;;4995302;28;20316;-77
2022/07/02 12:07:47;;;;;;;4.57;1.30;;;41.20;1.00;;;;;;5010695;28;20189;-77
2022/07/02 12:10:14;;;;;;;1.95;1.30;;;41.40;1.00;;;;;;5005743;28;20169;-77
2022/07/02 12:12:41;;;;;;;2.60;1.20;;;41.20;1.00;;;;;;5007431;28;20244;-77
2022/07/02 12:15:07;;;;;;;3.08;1.25;;;41.50;1.00;;;;;;5014862;28;20694;-77
2022/07/02 12:17:35;;;;;;;2.13;1.20;;;;;;;;;;5012412;28;20235;-78
2022/07/02 12:20:05;;;;;;;3.05;1.50;;;42.00;1.00;;;;;;5010133;28;20185;-77
2022/07/02 12:22:33;;;;;;;3.35;1.30;;;42.00;1.00;;;;;;4990741;28;20194;-77
2022/07/02 12:24:59;;;;;;;2.70;1.20;;;41.40;1.00;;;;;;5008372;28;20214;-76
2022/07/02 12:27:25;;;;;;;1.90;1.30;;;41.10;1.00;;;;;;5000629;28;20173;-77
2022/07/02 12:29:57;;;;;;;2.00;1.20;;;41.10;1.00;;;;;;5003965;28;20181;-77
2022/07/02 12:32:27;;;;;;;1.92;1.20;;;41.10;1.00;;;;;;5027713;28;20165;-77
2022/07/02 12:34:55;;;;;;;1.90;1.20;;;41.40;1.00;;;;;;5009722;28;20208;-77
2022/07/02 12:37:26;;;;;;;2.47;1.10;;;41.40;1.00;;;;;;5008845;28;20193;-77
2022/07/02 12:40:08;;;;;;;2.05;1.27;;;41.40;1.00;;;;;;4984156;28;20189;-78
2022/07/02 12:43:05;;;;;;;3.60;1.30;;;41.10;1.00;;;;;;5013918;28;20745;-77
2022/07/02 12:45:38;;;;;;;2.33;1.23;;;41.60;1.00;;;;;;5020624;28;20217;-78
2022/07/02 12:48:14;;;;;;;2.78;1.23;;;41.80;1.00;;;;;;4988406;28;20673;-77
2022/07/02 12:50:43;;;;;;;4.00;1.30;;;42.70;1.00;;;;;;5002520;28;20212;-78
2022/07/02 12:53:13;;;;;;;3.10;1.20;;;43.30;1.00;;;;;;5007773;28;20269;-79
2022/07/02 12:55:42;;;;;;;3.42;1.30;;;43.10;1.00;;;;;;4991095;28;20275;-77
2022/07/02 12:58:11;;;;;;;2.10;1.20;;;41.90;1.00;;;;;;5012296;28;20209;-77
2022/07/02 13:00:39;;;;;;;4.05;1.42;;;41.40;1.00;;;;;;5006738;28;20190;-76